To NAV CANADA Home Page Login to a new session Search on AWWS site Feedback and Comments Disclaimer Vers la page française équivalente Tips FAQ What's new on the site To the Forecasts and Observations / NOTAM section To "File a Flight Plan" website Publications and other links Update of the User's profile FIC Telephone Numbers My Weather Data Folder Route Weather Data Regional Weather Data Local Weather Data To the Forecasts and Observations / NOTAM section
Request Generated 08/22/2017 at 03:34:20 UTC . Weather information available at that time is displayed.

METAR/TAF

GREENWOOD/NS    

METAR CYZX 220300Z 25006KT 15SM SKC 18/15 A3000 RMK WNDY HILL UNAVBL SLP161=
METAR CYZX 220200Z 24007KT 15SM SKC 19/15 A3001 RMK WNDY HILL UNAVBL SLP164=
METAR CYZX 220100Z 24008KT 15SM SKC 20/16 A3002 RMK WNDY HILL UNAVBL SLP165=

TAF CYZX 212330Z 2200/2224 24012KT P6SM SKC
BECMG 2206/2208 VRB03KT
FM221800 30008KT P6SM SCT070
BECMG 2222/2224 22010KT
RMK NXT FCST BY 220600Z=
Your time UTC time
Weather data provided by Environment Canada and NAV CANADA